Terminal Aerodrome Forecast
Issued by NWS Pueblo, CO

Home | Current Version | Previous Version | Text Only | Print | Product List | Glossary On
Versions: 1 2 3 4 5 6 7 8 9 10 11 12 13 14 15 16 17 18 19 20 21 22 23 24 25 26 27 28 29 30 31 32 33
000
FTUS45 KPUB 231120
TAFCOS
TAF
KCOS 231120Z 2312/2412 VRB05KT P6SM BKN013
      TEMPO 2313/2315 SCT015
     FM231500 14006KT P6SM SCT100 SCT200
     FM231700 18010KT P6SM SCT070 SCT120
     FM232000 22015G25KT P6SM SCT080 BKN140
     FM240300 36010KT P6SM SCT100 BKN140
     FM240900 01006KT P6SM SCT140=

USA.gov is the U.S. government's official web portal to all federal, state and local government web resources and services.